createdAt,value
2022-08-05T00:02:07.603Z,23.38
2022-08-05T00:06:02.791Z,23.34
2022-08-05T00:08:38.189Z,23.24
2022-08-05T00:11:48.218Z,23.16
2022-08-05T00:14:52.264Z,23.09
2022-08-05T00:17:56.484Z,22.92
2022-08-05T00:20:59.036Z,22.96
2022-08-05T00:24:09.824Z,22.87
2022-08-05T00:27:16.655Z,22.66
2022-08-05T00:30:19.914Z,22.77
2022-08-05T00:34:54.892Z,22.61
2022-08-05T00:37:11.940Z,22.62
2022-08-05T00:40:17.799Z,22.54
2022-08-05T00:43:46.566Z,22.47
2022-08-05T00:46:53.968Z,22.42
2022-08-05T00:49:56.994Z,22.35
2022-08-05T00:53:00.219Z,22.14
2022-08-05T00:56:03.323Z,22.13
2022-08-05T00:59:06.992Z,22.02
2022-08-05T01:02:10.166Z,22.02
2022-08-05T01:05:13.903Z,21.98
2022-08-05T01:08:42.278Z,21.93
2022-08-05T01:11:39.959Z,21.91
2022-08-05T01:15:05.067Z,21.86
2022-08-05T01:18:13.334Z,21.80
2022-08-05T01:21:41.736Z,21.67
2022-08-05T01:24:50.363Z,21.63
2022-08-05T01:28:08.694Z,21.61
2022-08-05T01:31:17.210Z,21.59
2022-08-05T01:34:26.663Z,21.49
2022-08-05T01:37:44.381Z,21.48
2022-08-05T01:40:47.714Z,21.48
2022-08-05T01:43:51.963Z,21.40
2022-08-05T01:46:55.343Z,21.36
2022-08-05T01:50:01.809Z,21.36
2022-08-05T01:53:08.559Z,21.33
2022-08-05T01:58:09.315Z,21.27
2022-08-05T01:59:40.892Z,21.25
2022-08-05T02:02:56.423Z,21.22
2022-08-05T02:06:12.611Z,21.16
2022-08-05T02:09:24.628Z,21.15
2022-08-05T02:12:37.632Z,21.08
2022-08-05T02:15:54.273Z,21.05
2022-08-05T02:19:01.681Z,21.03
2022-08-05T02:22:17.542Z,20.96
2022-08-05T02:25:49.006Z,20.97
2022-08-05T02:28:53.061Z,20.97
2022-08-05T02:31:57.960Z,20.95
2022-08-05T02:35:13.766Z,20.83
2022-08-05T02:38:19.355Z,20.88
2022-08-05T02:41:28.779Z,20.80
2022-08-05T02:44:39.824Z,20.80
2022-08-05T02:48:06.999Z,20.74
2022-08-05T02:51:08.769Z,20.65
2022-08-05T02:54:36.073Z,20.63
2022-08-05T02:58:11.015Z,20.58
2022-08-05T03:01:02.854Z,20.58
2022-08-05T03:04:14.087Z,20.51
2022-08-05T03:07:56.569Z,20.46
2022-08-05T03:11:53.026Z,20.45
2022-08-05T03:14:08.175Z,20.40
2022-08-05T03:17:11.205Z,20.32
2022-08-05T03:20:14.044Z,20.27
2022-08-05T03:23:18.097Z,20.27
2022-08-05T03:26:32.023Z,20.21
2022-08-05T03:29:45.551Z,20.05
2022-08-05T03:33:02.259Z,20.07
2022-08-05T03:36:06.633Z,20.04
2022-08-05T03:39:20.255Z,20.03
2022-08-05T03:42:32.929Z,19.99
2022-08-05T03:45:55.308Z,19.98
2022-08-05T03:49:02.226Z,19.96
2022-08-05T03:52:39.132Z,19.92
2022-08-05T03:56:04.041Z,19.91
2022-08-05T03:59:01.986Z,19.88
2022-08-05T04:02:05.306Z,19.85
2022-08-05T04:05:10.409Z,19.80
2022-08-05T04:08:30.219Z,19.80
2022-08-05T04:11:50.906Z,19.82
2022-08-05T04:14:57.563Z,19.83
2022-08-05T04:18:06.998Z,19.78
2022-08-05T04:21:11.037Z,19.85
2022-08-05T04:24:19.545Z,19.88
2022-08-05T04:27:32.965Z,19.93
2022-08-05T04:30:45.811Z,19.95
2022-08-05T04:34:17.215Z,20.01
2022-08-05T04:37:11.695Z,20.04
2022-08-05T04:40:17.094Z,20.12
2022-08-05T04:43:22.551Z,20.18
2022-08-05T04:46:28.731Z,20.25
2022-08-05T04:49:38.377Z,20.33
2022-08-05T04:52:54.138Z,20.45
2022-08-05T04:56:14.899Z,20.57
2022-08-05T04:59:24.152Z,20.66
2022-08-05T05:02:37.111Z,20.85
2022-08-05T05:06:40.020Z,21.01
2022-08-05T05:09:07.718Z,21.16
2022-08-05T05:12:10.261Z,21.32
2022-08-05T05:15:17.547Z,21.46
2022-08-05T05:18:36.976Z,21.63
2022-08-05T05:21:39.765Z,21.79
2022-08-05T05:24:57.899Z,21.91
2022-08-05T05:28:02.165Z,22.00
2022-08-05T05:31:05.677Z,22.17
2022-08-05T05:34:12.066Z,22.32
2022-08-05T05:37:15.133Z,22.48
2022-08-05T05:40:20.364Z,22.66
2022-08-05T05:43:57.154Z,22.84
2022-08-05T05:46:51.243Z,23.00
2022-08-05T05:49:56.977Z,23.22
2022-08-05T05:53:20.789Z,23.41
2022-08-05T05:56:31.415Z,23.64
2022-08-05T05:59:40.205Z,23.88
2022-08-05T06:02:43.777Z,24.11
2022-08-05T06:05:47.042Z,24.38
2022-08-05T06:08:56.888Z,24.56
2022-08-05T06:12:02.467Z,24.78
2022-08-05T06:15:08.425Z,24.95
2022-08-05T06:18:11.294Z,25.19
2022-08-05T06:21:16.793Z,25.43
2022-08-05T06:24:25.649Z,25.60
2022-08-05T06:28:11.583Z,25.75
2022-08-05T06:30:52.917Z,25.98
2022-08-05T06:34:07.736Z,26.22
2022-08-05T06:37:12.397Z,26.42
2022-08-05T06:40:18.521Z,26.60
2022-08-05T06:43:59.693Z,26.71
2022-08-05T06:46:46.877Z,26.96
2022-08-05T06:50:01.695Z,27.17
2022-08-05T06:53:11.759Z,27.36
2022-08-05T06:56:27.013Z,27.60
2022-08-05T06:59:29.802Z,27.79
2022-08-05T07:02:45.939Z,27.99
2022-08-05T07:05:48.480Z,28.13
2022-08-05T07:08:54.885Z,28.33
2022-08-05T07:12:00.669Z,28.54
2022-08-05T07:15:34.344Z,28.72
2022-08-05T07:18:47.701Z,28.85
2022-08-05T07:21:59.881Z,28.98
2022-08-05T07:25:23.418Z,29.21
2022-08-05T07:28:27.629Z,29.37
2022-08-05T07:31:40.685Z,29.63
2022-08-05T07:34:57.941Z,29.84
2022-08-05T07:38:01.205Z,29.99
2022-08-05T07:42:08.073Z,30.11
2022-08-05T07:44:30.698Z,30.30
2022-08-05T07:47:40.391Z,30.53
2022-08-05T07:50:45.225Z,30.55
2022-08-05T07:53:50.230Z,30.70
2022-08-05T07:57:02.057Z,30.88
2022-08-05T08:00:17.351Z,31.07
2022-08-05T08:03:21.534Z,31.33
2022-08-05T08:06:28.330Z,31.42
2022-08-05T08:09:31.395Z,31.54
2022-08-05T08:12:48.906Z,31.59
2022-08-05T08:16:49.754Z,31.62
2022-08-05T08:19:37.962Z,31.73
2022-08-05T08:22:38.069Z,32.04
2022-08-05T08:25:59.127Z,31.99
2022-08-05T08:29:45.175Z,32.08
2022-08-05T08:32:28.416Z,32.33
2022-08-05T08:35:34.774Z,32.65
2022-08-05T08:38:37.965Z,32.75
2022-08-05T08:41:51.764Z,33.01
2022-08-05T08:45:23.383Z,33.07
2022-08-05T08:49:03.316Z,33.29
2022-08-05T08:52:03.506Z,33.36
2022-08-05T08:55:13.122Z,33.42
2022-08-05T08:58:17.296Z,33.32
2022-08-05T09:01:20.471Z,33.67
2022-08-05T09:04:24.228Z,33.66
2022-08-05T09:07:39.439Z,33.94
2022-08-05T09:10:56.517Z,34.06
2022-08-05T09:14:54.771Z,34.26
2022-08-05T09:17:42.518Z,34.33
2022-08-05T09:20:47.161Z,34.36
2022-08-05T09:24:04.474Z,34.18
2022-08-05T09:27:09.754Z,34.51
2022-08-05T09:30:16.941Z,34.25
2022-08-05T09:33:34.852Z,34.50
2022-08-05T09:36:56.132Z,34.78
2022-08-05T09:40:02.120Z,34.99
2022-08-05T09:43:10.433Z,34.96
2022-08-05T09:46:27.496Z,35.07
2022-08-05T09:49:54.400Z,35.07
2022-08-05T09:52:58.779Z,35.28
2022-08-05T09:56:04.777Z,35.28
2022-08-05T09:59:17.555Z,35.37
2022-08-05T10:02:41.126Z,35.11
2022-08-05T10:05:44.782Z,35.20
2022-08-05T10:08:55.354Z,35.38
2022-08-05T10:12:18.907Z,35.46
2022-08-05T10:15:35.176Z,35.59
2022-08-05T10:18:39.036Z,35.82
2022-08-05T10:21:43.677Z,36.15
2022-08-05T10:24:46.699Z,36.28
2022-08-05T10:28:13.080Z,36.32
2022-08-05T10:33:00.862Z,36.32
2022-08-05T10:34:40.770Z,36.61
2022-08-05T10:37:44.975Z,36.55
2022-08-05T10:41:09.680Z,36.33
2022-08-05T10:44:21.015Z,36.42
2022-08-05T10:47:32.951Z,36.72
2022-08-05T10:50:59.551Z,36.64
2022-08-05T10:54:22.984Z,36.72
2022-08-05T10:57:31.888Z,36.78
2022-08-05T11:00:35.977Z,37.09
2022-08-05T11:04:18.310Z,36.90
2022-08-05T11:07:32.959Z,36.54
2022-08-05T11:10:50.270Z,36.80
2022-08-05T11:14:04.955Z,36.87
2022-08-05T11:17:58.034Z,36.78
2022-08-05T11:20:51.429Z,36.82
2022-08-05T11:24:05.750Z,36.92
2022-08-05T11:27:50.860Z,37.10
2022-08-05T11:31:06.617Z,36.91
2022-08-05T11:34:09.465Z,37.27
2022-08-05T11:38:26.436Z,37.36
2022-08-05T11:41:34.367Z,37.36
2022-08-05T11:44:53.021Z,37.35
2022-08-05T11:47:57.792Z,37.47
2022-08-05T11:51:02.186Z,37.47
2022-08-05T11:54:05.144Z,37.38
2022-08-05T11:57:24.828Z,37.61
2022-08-05T12:00:30.808Z,37.67
2022-08-05T12:03:56.130Z,37.71
2022-08-05T12:07:02.104Z,37.85
2022-08-05T12:10:09.142Z,37.88
2022-08-05T12:13:15.544Z,37.77
2022-08-05T12:16:26.939Z,37.67
2022-08-05T12:20:16.671Z,37.83
2022-08-05T12:22:52.531Z,37.71
2022-08-05T12:25:56.969Z,37.45
2022-08-05T12:29:00.088Z,37.52
2022-08-05T12:32:07.584Z,37.47
2022-08-05T12:35:16.738Z,37.43
2022-08-05T12:38:22.407Z,37.51
2022-08-05T12:41:36.472Z,37.75
2022-08-05T12:44:47.376Z,37.80
2022-08-05T12:48:17.240Z,37.70
2022-08-05T12:52:09.989Z,37.75
2022-08-05T12:54:41.459Z,37.89
2022-08-05T12:58:38.829Z,37.79
2022-08-05T13:02:00.181Z,37.74
2022-08-05T13:04:32.615Z,37.65
2022-08-05T13:07:57.504Z,37.47
2022-08-05T13:11:02.224Z,37.50
2022-08-05T13:14:20.449Z,37.38
2022-08-05T13:17:41.331Z,37.46
2022-08-05T13:20:45.284Z,37.77
2022-08-05T13:23:50.751Z,37.99
2022-08-05T13:26:54.953Z,38.23
2022-08-05T13:30:35.144Z,38.27
2022-08-05T13:34:21.910Z,38.34
2022-08-05T13:36:44.563Z,38.35
2022-08-05T13:40:16.594Z,37.95
2022-08-05T13:43:22.203Z,38.09
2022-08-05T13:46:44.229Z,37.64
2022-08-05T13:49:49.268Z,37.87
2022-08-05T13:52:52.181Z,37.75
2022-08-05T13:56:00.231Z,37.90
2022-08-05T13:59:05.998Z,37.59
2022-08-05T14:02:26.629Z,37.54
2022-08-05T14:06:04.578Z,37.82
2022-08-05T14:08:55.147Z,37.90
2022-08-05T14:12:17.678Z,38.07
2022-08-05T14:16:07.975Z,38.21
2022-08-05T14:18:43.825Z,38.16
2022-08-05T14:22:08.737Z,38.31
2022-08-05T14:25:21.959Z,38.18
2022-08-05T14:28:26.413Z,38.13
2022-08-05T14:32:02.650Z,38.26
2022-08-05T14:34:53.256Z,37.94
2022-08-05T14:37:57.835Z,38.04
2022-08-05T14:41:06.178Z,38.17
2022-08-05T14:44:20.504Z,38.22
2022-08-05T14:48:03.805Z,37.98
2022-08-05T14:50:47.841Z,37.77
2022-08-05T14:54:27.094Z,37.83
2022-08-05T14:57:15.099Z,37.67
2022-08-05T15:00:19.907Z,37.54
2022-08-05T15:03:23.031Z,37.25
2022-08-05T15:06:27.874Z,37.13
2022-08-05T15:09:52.287Z,37.24
2022-08-05T15:13:01.110Z,37.19
2022-08-05T15:16:06.754Z,37.14
2022-08-05T15:19:14.616Z,37.19
2022-08-05T15:22:27.182Z,37.30
2022-08-05T15:25:41.046Z,37.25
2022-08-05T15:28:53.298Z,37.28
2022-08-05T15:31:55.974Z,37.38
2022-08-05T15:34:58.834Z,37.30
2022-08-05T15:38:31.720Z,37.04
2022-08-05T15:41:58.514Z,37.09
2022-08-05T15:44:54.840Z,36.93
2022-08-05T15:47:57.742Z,36.97
2022-08-05T15:51:03.402Z,36.83
2022-08-05T15:54:08.665Z,36.84
2022-08-05T15:57:11.609Z,36.87
2022-08-05T16:00:32.749Z,36.87
2022-08-05T16:03:42.243Z,36.69
2022-08-05T16:06:44.921Z,36.60
2022-08-05T16:09:51.115Z,36.44
2022-08-05T16:12:56.720Z,36.37
2022-08-05T16:15:59.598Z,36.28
2022-08-05T16:19:02.273Z,36.20
2022-08-05T16:22:06.290Z,35.97
2022-08-05T16:25:11.019Z,36.04
2022-08-05T16:28:15.596Z,35.98
2022-08-05T16:31:18.326Z,35.99
2022-08-05T16:34:23.278Z,35.92
2022-08-05T16:38:01.854Z,35.86
2022-08-05T16:40:55.774Z,35.83
2022-08-05T16:44:02.477Z,35.77
2022-08-05T16:47:05.447Z,35.70
2022-08-05T16:50:29.585Z,35.64
2022-08-05T16:54:02.786Z,35.46
2022-08-05T16:56:56.769Z,35.37
2022-08-05T17:00:03.064Z,35.32
2022-08-05T17:03:19.540Z,35.14
2022-08-05T17:06:24.457Z,34.99
2022-08-05T17:09:30.990Z,34.82
2022-08-05T17:12:51.299Z,34.68
2022-08-05T17:16:02.779Z,34.51
2022-08-05T17:19:17.671Z,34.42
2022-08-05T17:22:25.333Z,34.29
2022-08-05T17:25:33.615Z,34.14
2022-08-05T17:28:36.892Z,33.95
2022-08-05T17:31:56.474Z,33.83
2022-08-05T17:35:00.527Z,33.67
2022-08-05T17:38:08.061Z,33.43
2022-08-05T17:41:22.682Z,33.31
2022-08-05T17:44:33.958Z,33.04
2022-08-05T17:47:39.005Z,32.66
2022-08-05T17:50:42.097Z,32.54
2022-08-05T17:53:45.898Z,32.36
2022-08-05T17:56:57.482Z,32.16
2022-08-05T18:00:04.847Z,32.00
2022-08-05T18:03:08.699Z,31.78
2022-08-05T18:06:15.380Z,31.63
2022-08-05T18:09:18.784Z,31.40
2022-08-05T18:12:22.350Z,31.20
2022-08-05T18:15:27.655Z,30.97
2022-08-05T18:18:34.061Z,30.76
2022-08-05T18:22:08.226Z,30.58
2022-08-05T18:25:06.303Z,30.44
2022-08-05T18:28:09.875Z,30.34
2022-08-05T18:31:12.716Z,30.18
2022-08-05T18:34:21.676Z,30.05
2022-08-05T18:37:34.381Z,29.89
2022-08-05T18:41:55.077Z,29.59
2022-08-05T18:44:08.006Z,29.57
2022-08-05T18:47:12.052Z,29.36
2022-08-05T18:50:45.109Z,29.19
2022-08-05T18:53:50.100Z,29.13
2022-08-05T18:56:53.274Z,28.90
2022-08-05T19:00:02.313Z,28.77
2022-08-05T19:03:06.848Z,28.46
2022-08-05T19:06:19.280Z,28.50
2022-08-05T19:09:25.286Z,28.35
2022-08-05T19:12:32.209Z,28.25
2022-08-05T19:15:57.083Z,28.12
2022-08-05T19:18:58.124Z,27.98
2022-08-05T19:22:00.837Z,27.98
2022-08-05T19:25:04.436Z,27.81
2022-08-05T19:28:07.168Z,27.58
2022-08-05T19:31:13.482Z,27.60
2022-08-05T19:34:20.390Z,27.53
2022-08-05T19:37:30.103Z,27.47
2022-08-05T19:40:48.295Z,27.40
2022-08-05T19:44:05.446Z,27.29
2022-08-05T19:47:10.295Z,27.18
2022-08-05T19:50:13.395Z,27.12
2022-08-05T19:53:16.045Z,27.01
2022-08-05T19:56:38.863Z,26.94
2022-08-05T19:59:55.394Z,26.86
2022-08-05T20:03:13.883Z,26.77
2022-08-05T20:06:29.074Z,26.74
2022-08-05T20:09:54.517Z,26.65
2022-08-05T20:12:55.273Z,26.57
2022-08-05T20:15:58.043Z,26.39
2022-08-05T20:19:02.610Z,26.32
2022-08-05T20:22:05.780Z,26.35
2022-08-05T20:25:12.489Z,26.22
2022-08-05T20:28:15.087Z,26.22
2022-08-05T20:31:23.084Z,26.17
2022-08-05T20:34:31.392Z,26.08
2022-08-05T20:38:05.399Z,25.99
2022-08-05T20:40:57.213Z,25.91
2022-08-05T20:44:17.435Z,25.94
2022-08-05T20:47:31.870Z,25.86
2022-08-05T20:50:37.749Z,25.77
2022-08-05T20:53:56.185Z,25.67
2022-08-05T20:57:00.678Z,25.63
2022-08-05T21:00:19.891Z,25.53
2022-08-05T21:03:34.379Z,25.47
2022-08-05T21:06:37.861Z,25.43
2022-08-05T21:09:53.354Z,25.41
2022-08-05T21:13:08.953Z,25.36
2022-08-05T21:16:17.330Z,25.32
2022-08-05T21:19:26.007Z,25.22
2022-08-05T21:22:31.245Z,25.19
2022-08-05T21:25:34.373Z,25.09
2022-08-05T21:28:39.365Z,25.04
2022-08-05T21:31:42.056Z,24.94
2022-08-05T21:34:44.924Z,24.93
2022-08-05T21:38:07.616Z,24.86
2022-08-05T21:41:12.058Z,24.79
2022-08-05T21:44:14.643Z,24.70
2022-08-05T21:47:56.171Z,24.67
2022-08-05T21:50:41.988Z,24.52
2022-08-05T21:53:59.379Z,24.53
2022-08-05T21:57:30.217Z,24.48
2022-08-05T22:00:29.401Z,24.45
2022-08-05T22:03:48.741Z,24.42
2022-08-05T22:06:57.008Z,24.31
2022-08-05T22:10:00.307Z,24.32
2022-08-05T22:14:06.627Z,24.25
2022-08-05T22:16:41.353Z,24.24
2022-08-05T22:20:00.580Z,24.23
2022-08-05T22:23:23.920Z,24.16
2022-08-05T22:26:50.002Z,24.15
2022-08-05T22:29:54.103Z,24.01
2022-08-05T22:32:57.025Z,23.99
2022-08-05T22:36:01.059Z,23.94
2022-08-05T22:39:09.452Z,23.94
2022-08-05T22:42:25.274Z,23.86
2022-08-05T22:45:28.972Z,23.79
2022-08-05T22:48:34.264Z,23.78
2022-08-05T22:52:04.875Z,23.69
2022-08-05T22:55:00.791Z,23.58
2022-08-05T22:58:03.428Z,23.59
2022-08-05T23:01:08.037Z,23.58
2022-08-05T23:04:10.815Z,23.58
2022-08-05T23:07:13.767Z,23.52
2022-08-05T23:10:23.837Z,23.49
2022-08-05T23:13:27.193Z,23.54
2022-08-05T23:17:10.635Z,23.42
2022-08-05T23:20:17.755Z,23.40
2022-08-05T23:23:20.703Z,23.33
2022-08-05T23:26:25.192Z,23.30
2022-08-05T23:29:30.134Z,23.28
2022-08-05T23:32:37.627Z,23.21
2022-08-05T23:35:43.337Z,23.24
2022-08-05T23:38:46.695Z,23.17
2022-08-05T23:41:49.260Z,23.15
2022-08-05T23:44:54.545Z,23.06
2022-08-05T23:47:59.573Z,22.99
2022-08-05T23:51:07.363Z,22.91
2022-08-05T23:54:10.716Z,22.91
2022-08-05T23:57:14.248Z,22.81
